Granbury, Texas
Current Conditions -  °F | °C
As of 2:15 AM on Thursday 27 Nov 2014 (Local Time) from KGDJ Reporting Station
Clear Clear  
Wind Chill: 36°   Ceiling: Unl
Heat Index: 40°   Visibility: 10mi
Dew Point: 33°   Wind: 6mph
Humidity: 76%   Direction: 250°WSW
Pressure: 30.47"   Gusts: NA
Location:  32.44°N, 97.79°W
Report Text: KGDJ 270815Z AUTO 25005KT 10SM CLR 05/01 A3047 RMK AO2 T00460007
Loading
Personal Weather Stations






























Interactive Weather Map New forecast layout! Learn more

10-Day Weather Forecast

Advertisements
Track Severe Weather on mobile